Time;durP1;ratioP1;P1;durP2;ratioP2;P2;SDS_P1;SDS_P2;PMS_P1;PMS_P2;Temp;Humidity;BMP_temperature;BMP_pressure;BME280_temperature;BME280_humidity;BME280_pressure;Samples;Min_cycle;Max_cycle;Signal;HPM_P1;HPM_P2
2022/01/26 00:05:48;;;;;;;76.70;27.40;;;3.10;99.90;;;;;;5156130;27;20042;-83
2022/01/26 00:08:32;;;;;;;73.72;27.63;;;3.00;99.90;;;;;;5155734;27;20126;-84
2022/01/26 00:11:16;;;;;;;91.07;30.93;;;4.70;99.90;;;;;;5125056;27;20498;-84
2022/01/26 00:14:02;;;;;;;;;;;4.30;99.90;;;;;;5156962;27;20072;-84
2022/01/26 00:16:46;;;;;;;75.30;27.20;;;3.00;99.90;;;;;;5156314;27;19914;-84
2022/01/26 00:19:46;;;;;;;;;;;3.00;99.90;;;;;;5156113;27;20057;-84
2022/01/26 00:22:58;;;;;;;86.93;28.67;;;3.00;99.90;;;;;;5155706;27;20231;-83
2022/01/26 00:26:08;;;;;;;83.63;27.50;;;3.00;99.90;;;;;;5144928;27;20045;-84
2022/01/26 00:29:10;;;;;;;75.80;27.73;;;2.90;99.90;;;;;;5144061;27;20033;-84
2022/01/26 00:41:07;;;;;;;88.20;31.13;;;3.30;99.90;;;;;;5150616;27;20057;-83
2022/01/26 00:43:55;;;;;;;79.87;28.27;;;2.90;99.90;;;;;;5140261;27;20087;-83
2022/01/26 00:46:47;;;;;;;85.70;28.33;;;2.90;99.90;;;;;;5139701;27;20087;-84
2022/01/26 00:49:31;;;;;;;82.60;28.50;;;2.90;99.90;;;;;;5155351;27;20397;-84
2022/01/26 00:52:25;;;;;;;89.70;30.90;;;2.80;99.90;;;;;;5155926;27;20090;-83
2022/01/26 00:55:13;;;;;;;87.53;30.73;;;3.10;99.90;;;;;;5127111;27;20507;-83
2022/01/26 00:57:57;;;;;;;91.13;31.50;;;2.80;99.90;;;;;;5155823;27;20044;-83
2022/01/26 01:00:41;;;;;;;;;;;2.80;99.90;;;;;;5139080;27;20044;-84
2022/01/26 01:03:26;;;;;;;88.68;29.77;;;2.90;99.90;;;;;;5154274;27;19952;-84
2022/01/26 01:06:18;;;;;;;93.50;29.67;;;2.80;99.90;;;;;;5135806;27;20041;-84
2022/01/26 01:09:02;;;;;;;94.70;29.30;;;2.70;99.90;;;;;;5139919;27;20033;-84
2022/01/26 01:11:48;;;;;;;86.97;30.83;;;2.70;99.90;;;;;;5122298;27;20034;-84
2022/01/26 01:14:37;;;;;;;90.60;31.73;;;2.80;99.90;;;;;;5139029;27;20518;-84
2022/01/26 01:17:25;;;;;;;84.67;30.40;;;4.00;99.90;;;;;;5155447;27;20046;-84
2022/01/26 01:23:59;;;;;;;89.60;30.53;;;2.80;99.90;;;;;;5155708;27;20045;-84
2022/01/26 01:26:35;;;;;;;84.80;30.30;;;3.50;99.90;;;;;;5155239;27;20054;-84
2022/01/26 01:31:59;;;;;;;96.40;31.53;;;2.70;99.90;;;;;;5147345;27;20073;-84
2022/01/26 01:34:43;;;;;;;83.40;31.60;;;3.40;99.90;;;;;;5139166;27;20126;-84
2022/01/26 01:37:27;;;;;;;;;;;2.80;99.90;;;;;;5139121;27;20092;-84
2022/01/26 01:40:12;;;;;;;92.18;32.38;;;3.00;99.90;;;;;;5124776;27;20336;-84
2022/01/26 01:42:56;;;;;;;84.50;31.17;;;2.70;99.90;;;;;;5139115;27;20049;-84
2022/01/26 01:45:45;;;;;;;83.67;30.33;;;4.00;99.90;;;;;;5124068;27;20448;-84
2022/01/26 01:48:32;;;;;;;87.60;30.03;;;3.60;99.90;;;;;;5138526;27;20083;-84
2022/01/26 01:51:17;;;;;;;92.77;33.03;;;3.30;99.90;;;;;;5133876;27;20095;-84
2022/01/26 01:54:03;;;;;;;92.67;31.50;;;3.10;99.90;;;;;;5147014;27;20119;-84
2022/01/26 01:56:55;;;;;;;95.97;35.73;;;2.70;99.90;;;;;;5153189;27;20158;-84
2022/01/26 01:59:40;;;;;;;89.40;29.70;;;2.90;99.90;;;;;;5137614;27;20494;-84
2022/01/26 02:02:24;;;;;;;94.03;32.25;;;4.20;99.90;;;;;;5138841;27;20159;-84
2022/01/26 02:05:08;;;;;;;86.70;31.33;;;2.70;99.90;;;;;;5132109;27;20045;-84
2022/01/26 02:07:53;;;;;;;90.27;32.10;;;2.70;99.90;;;;;;5123047;27;20095;-84
2022/01/26 02:10:38;;;;;;;84.63;31.90;;;3.80;99.90;;;;;;5153195;27;20034;-84
2022/01/26 02:13:33;;;;;;;89.23;30.30;;;2.60;99.90;;;;;;5154375;27;20041;-84
2022/01/26 02:16:43;;;;;;;83.77;28.77;;;3.80;99.90;;;;;;5148642;27;20062;-84
2022/01/26 02:55:49;;;;;;;85.43;29.50;;;3.70;99.90;;;;;;5153139;27;20049;-84
2022/01/26 02:58:57;;;;;;;89.87;30.07;;;4.00;99.90;;;;;;5148904;27;20042;-84
2022/01/26 03:01:55;;;;;;;89.47;29.90;;;2.50;99.90;;;;;;5141095;27;20398;-84
2022/01/26 03:04:46;;;;;;;92.47;31.00;;;3.00;99.90;;;;;;5135509;27;20121;-84
2022/01/26 03:07:57;;;;;;;91.50;30.30;;;3.60;99.90;;;;;;5124612;27;20034;-84
2022/01/26 03:10:54;;;;;;;78.63;30.53;;;2.50;99.90;;;;;;5137378;27;20026;-84
2022/01/26 03:13:52;;;;;;;82.93;29.30;;;2.50;99.90;;;;;;5153032;27;20030;-84
2022/01/26 03:16:43;;;;;;;89.13;30.03;;;2.50;99.90;;;;;;5153693;27;20037;-85
2022/01/26 03:19:41;;;;;;;85.43;29.77;;;3.20;99.90;;;;;;5138933;27;20091;-84
2022/01/26 03:28:44;;;;;;;81.33;29.23;;;2.50;99.90;;;;;;5138907;27;20088;-84
2022/01/26 03:34:32;;;;;;;88.77;30.53;;;3.50;99.90;;;;;;5138400;27;20165;-84
2022/01/26 03:37:16;;;;;;;81.63;28.63;;;3.90;99.90;;;;;;5141664;27;20149;-84
2022/01/26 03:40:03;;;;;;;91.47;30.30;;;3.00;99.90;;;;;;5139774;27;20203;-84
2022/01/26 03:42:47;;;;;;;79.87;26.40;;;2.50;99.90;;;;;;5156682;27;20095;-84
2022/01/26 03:45:31;;;;;;;;;;;2.50;99.90;;;;;;5141825;27;20038;-84
2022/01/26 03:48:15;;;;;;;86.78;28.95;;;3.10;99.90;;;;;;5157066;27;19913;-84
2022/01/26 03:51:00;;;;;;;79.88;28.83;;;2.50;99.90;;;;;;5156321;27;20034;-84
2022/01/26 03:53:44;;;;;;;91.20;29.60;;;3.90;99.90;;;;;;5156387;27;20057;-83
2022/01/26 03:56:28;;;;;;;;;;;2.50;99.90;;;;;;5141636;27;20038;-85
2022/01/26 03:59:12;;;;;;;83.65;28.15;;;4.10;99.90;;;;;;5140872;27;19918;-84
2022/01/26 04:01:56;;;;;;;88.85;31.48;;;4.00;99.90;;;;;;5156119;27;20044;-84
2022/01/26 04:04:47;;;;;;;;;;;2.50;99.90;;;;;;5120992;27;20406;-84
2022/01/26 04:07:32;;;;;;;86.87;29.80;;;2.50;99.90;;;;;;5135774;27;19918;-84
2022/01/26 04:10:27;;;;;;;86.57;29.77;;;3.40;99.90;;;;;;5140808;27;20550;-84
2022/01/26 04:13:11;;;;;;;83.43;27.67;;;2.50;99.90;;;;;;5140692;27;20042;-84
2022/01/26 04:15:55;;;;;;;;;;;3.70;99.90;;;;;;5156452;27;20042;-84
2022/01/26 04:18:41;;;;;;;61.78;21.23;;;2.50;99.90;;;;;;5156509;27;20022;-84
2022/01/26 04:24:18;;;;;;;;;;;2.40;99.90;;;;;;5156429;27;20052;-84
2022/01/26 04:27:13;;;;;;;87.07;29.13;;;3.70;99.90;;;;;;5156249;27;19919;-84
2022/01/26 04:29:57;;;;;;;81.07;28.00;;;2.50;99.90;;;;;;5156270;27;20034;-84
2022/01/26 04:32:41;;;;;;;84.67;28.13;;;3.00;99.90;;;;;;5140904;27;20033;-84
2022/01/26 04:35:25;;;;;;;74.50;28.93;;;3.20;99.90;;;;;;5140280;27;20042;-84
2022/01/26 04:38:29;;;;;;;;;;;3.20;99.90;;;;;;5126221;27;20411;-84
2022/01/26 04:44:18;;;;;;;79.57;26.03;;;2.80;99.90;;;;;;5155978;27;20118;-84
2022/01/26 04:47:03;;;;;;;69.83;26.60;;;2.50;99.90;;;;;;5140060;27;20532;-84
2022/01/26 04:49:47;;;;;;;75.97;26.63;;;2.50;99.90;;;;;;5155849;27;20522;-85
2022/01/26 04:52:31;;;;;;;;;;;3.10;99.90;;;;;;5140623;27;20038;-84
2022/01/26 04:55:15;;;;;;;63.55;24.40;;;2.40;99.90;;;;;;5133677;27;19938;-84
2022/01/26 04:58:00;;;;;;;77.33;27.37;;;3.30;99.90;;;;;;5125147;27;20042;-84
2022/01/26 05:00:45;;;;;;;80.03;27.57;;;3.60;99.90;;;;;;5155548;27;20085;-84
2022/01/26 05:03:29;;;;;;;70.83;27.40;;;3.00;99.90;;;;;;5125450;27;20083;-85
2022/01/26 05:06:13;;;;;;;61.78;25.00;;;2.40;99.90;;;;;;5148386;27;20043;-84
2022/01/26 05:08:57;;;;;;;;;;;3.40;99.90;;;;;;5139731;27;20114;-84
2022/01/26 05:11:43;;;;;;;69.18;24.65;;;2.40;99.90;;;;;;5139743;27;19963;-84
2022/01/26 05:14:27;;;;;;;69.20;25.90;;;2.40;99.90;;;;;;5139853;27;20443;-84
2022/01/26 05:17:12;;;;;;;;;;;3.90;99.90;;;;;;5155236;27;20083;-85
2022/01/26 05:19:59;;;;;;;68.63;25.67;;;2.40;99.90;;;;;;5154776;27;19958;-84
2022/01/26 05:22:44;;;;;;;69.63;25.53;;;2.30;99.90;;;;;;5155027;27;20041;-84
2022/01/26 05:25:29;;;;;;;61.00;22.10;;;2.80;99.90;;;;;;5139788;27;20087;-84
2022/01/26 05:28:13;;;;;;;67.43;25.40;;;2.40;99.90;;;;;;5154800;27;20080;-84
2022/01/26 05:30:57;;;;;;;67.37;26.07;;;2.40;99.90;;;;;;5154308;27;20497;-84
2022/01/26 05:33:41;;;;;;;66.60;23.30;;;2.30;99.90;;;;;;5139091;27;20037;-84
2022/01/26 05:36:26;;;;;;;66.90;23.67;;;2.30;99.90;;;;;;5155136;27;20502;-84
2022/01/26 05:39:10;;;;;;;68.23;24.47;;;2.40;99.90;;;;;;5138691;27;20029;-84
2022/01/26 05:41:56;;;;;;;65.27;24.83;;;2.30;99.90;;;;;;5139146;27;20057;-84
2022/01/26 05:44:40;;;;;;;61.10;23.00;;;2.30;99.90;;;;;;5139171;27;20069;-84
2022/01/26 05:47:25;;;;;;;57.47;21.90;;;2.30;99.90;;;;;;5154341;27;20038;-84
2022/01/26 05:50:09;;;;;;;;;;;2.30;99.90;;;;;;5138789;27;20123;-84
2022/01/26 05:52:53;;;;;;;63.10;20.67;;;2.70;99.90;;;;;;5138717;27;19918;-84
2022/01/26 05:55:37;;;;;;;;;;;3.60;99.90;;;;;;5154721;27;20042;-84
2022/01/26 05:58:21;;;;;;;60.38;20.80;;;2.30;99.90;;;;;;5138107;27;20038;-84
2022/01/26 06:01:07;;;;;;;72.63;23.77;;;2.70;99.90;;;;;;5154016;27;20042;-84
2022/01/26 06:03:51;;;;;;;62.83;24.80;;;2.30;99.90;;;;;;5138700;27;20385;-84
2022/01/26 06:06:36;;;;;;;65.33;23.47;;;2.30;99.90;;;;;;5138703;27;20033;-84
2022/01/26 06:09:20;;;;;;;67.07;24.10;;;2.30;99.90;;;;;;5138315;27;20041;-84
2022/01/26 06:12:04;;;;;;;;;;;2.60;99.90;;;;;;5138401;27;20042;-84
2022/01/26 06:14:48;;;;;;;60.65;21.17;;;2.30;99.90;;;;;;5154245;27;20316;-84
2022/01/26 06:17:32;;;;;;;;;;;2.30;99.90;;;;;;5148859;27;20038;-84
2022/01/26 06:20:17;;;;;;;62.65;20.70;;;2.30;99.90;;;;;;5121476;27;19918;-84
2022/01/26 06:23:03;;;;;;;53.67;20.63;;;3.20;99.90;;;;;;5137958;27;20073;-84
2022/01/26 06:25:49;;;;;;;60.67;23.57;;;2.40;99.90;;;;;;5138451;27;20526;-84
2022/01/26 06:28:34;;;;;;;63.73;24.17;;;2.70;99.90;;;;;;5124354;27;20034;-84
2022/01/26 06:31:19;;;;;;;66.90;23.43;;;2.40;99.90;;;;;;5116718;27;20091;-84
2022/01/26 06:34:03;;;;;;;58.50;23.03;;;2.30;99.90;;;;;;5146378;27;20542;-84
2022/01/26 06:36:48;;;;;;;59.37;21.73;;;2.90;99.90;;;;;;5121330;27;20386;-86
2022/01/26 06:39:32;;;;;;;;;;;2.90;99.90;;;;;;5138659;27;20038;-87
2022/01/26 06:42:21;;;;;;;52.38;19.90;;;3.00;99.90;;;;;;5147034;27;20009;-86
2022/01/26 06:48:01;;;;;;;57.73;20.67;;;2.30;99.90;;;;;;5120755;27;20096;-84
2022/01/26 06:50:45;;;;;;;57.57;21.80;;;3.00;99.90;;;;;;5126003;27;20037;-85
2022/01/26 06:53:29;;;;;;;56.47;21.43;;;3.30;99.90;;;;;;5137442;27;20046;-84
2022/01/26 06:56:14;;;;;;;59.77;21.67;;;2.30;99.90;;;;;;5139884;27;20049;-84
2022/01/26 06:58:58;;;;;;;58.70;23.37;;;3.10;99.90;;;;;;5120965;27;20042;-83
2022/01/26 07:01:42;;;;;;;;;;;3.10;99.90;;;;;;5146365;27;20088;-84
2022/01/26 07:04:26;;;;;;;60.92;20.80;;;2.30;99.90;;;;;;5145275;27;19978;-83
2022/01/26 07:07:11;;;;;;;;;;;2.30;99.90;;;;;;5145572;27;20050;-83
2022/01/26 07:09:55;;;;;;;;;;;2.30;99.90;;;;;;5146296;27;19918;-83
2022/01/26 07:12:39;;;;;;;56.95;21.92;;;3.90;99.90;;;;;;5128279;27;19925;-82
2022/01/26 07:21:29;;;;;;;63.90;23.50;;;2.30;99.90;;;;;;5145709;27;20123;-83
2022/01/26 07:24:14;;;;;;;60.10;23.23;;;2.40;99.90;;;;;;5127668;27;20175;-83
2022/01/26 07:26:58;;;;;;;65.83;26.07;;;2.40;99.90;;;;;;5145089;27;20033;-83
2022/01/26 07:29:42;;;;;;;68.20;28.60;;;2.40;99.90;;;;;;5142062;27;20552;-83
2022/01/26 07:32:29;;;;;;;68.23;28.57;;;2.40;99.90;;;;;;5127247;27;20623;-83
2022/01/26 07:35:13;;;;;;;74.50;28.20;;;2.40;99.90;;;;;;5130801;27;20070;-83
2022/01/26 07:37:59;;;;;;;72.37;28.10;;;2.40;99.90;;;;;;5110237;27;20050;-84
2022/01/26 07:40:43;;;;;;;71.80;28.73;;;2.40;99.90;;;;;;5117089;28;20101;-81
2022/01/26 07:43:28;;;;;;;67.47;26.97;;;3.60;99.90;;;;;;5115731;27;20103;-84
2022/01/26 07:46:13;;;;;;;76.50;28.93;;;3.70;99.90;;;;;;5152831;27;20062;-84
2022/01/26 07:48:57;;;;;;;80.13;30.37;;;2.50;99.90;;;;;;5153254;27;20114;-85
2022/01/26 07:51:41;;;;;;;77.17;32.27;;;2.50;99.90;;;;;;5153311;27;20033;-84
2022/01/26 07:54:25;;;;;;;;;;;2.60;99.90;;;;;;5137645;27;20102;-86
2022/01/26 07:57:11;;;;;;;59.92;25.05;;;2.50;99.90;;;;;;5137308;27;19918;-83
2022/01/26 07:59:55;;;;;;;80.73;31.60;;;4.30;99.90;;;;;;5110179;27;20720;-84
2022/01/26 08:02:40;;;;;;;81.10;30.73;;;3.70;99.90;;;;;;5134637;27;20499;-83
2022/01/26 08:05:24;;;;;;;81.77;34.60;;;3.50;99.90;;;;;;5152472;27;20069;-84
2022/01/26 08:08:09;;;;;;;82.00;33.27;;;2.60;99.90;;;;;;5122405;27;20037;-85
2022/01/26 08:10:54;;;;;;;82.23;34.43;;;2.60;99.90;;;;;;5137296;27;20045;-84
2022/01/26 08:13:39;;;;;;;93.90;36.70;;;2.60;99.90;;;;;;5156723;27;20041;-83
2022/01/26 08:16:23;;;;;;;88.93;33.70;;;3.70;99.90;;;;;;5140653;27;20046;-83
2022/01/26 08:19:08;;;;;;;94.90;36.90;;;3.90;99.90;;;;;;5156725;27;20095;-83
2022/01/26 08:21:58;;;;;;;89.50;35.57;;;2.70;99.90;;;;;;5136224;27;20042;-83
2022/01/26 08:24:43;;;;;;;96.97;34.70;;;2.70;99.90;;;;;;5135645;27;20043;-83
2022/01/26 08:27:33;;;;;;;95.10;36.63;;;2.70;99.90;;;;;;5118583;27;20175;-83
2022/01/26 08:30:19;;;;;;;96.27;36.40;;;2.70;99.90;;;;;;5135716;27;20046;-83
2022/01/26 08:33:05;;;;;;;93.47;36.93;;;2.70;99.90;;;;;;5136082;27;20042;-83
2022/01/26 08:35:49;;;;;;;93.50;37.23;;;4.30;99.90;;;;;;5135954;27;20540;-83
2022/01/26 08:38:33;;;;;;;;;;;2.90;99.90;;;;;;5136050;27;20053;-83
2022/01/26 08:41:18;;;;;;;95.57;36.22;;;2.80;99.90;;;;;;5134369;27;19941;-83
2022/01/26 08:44:03;;;;;;;94.97;37.97;;;2.80;99.90;;;;;;5103447;27;20034;-82
2022/01/26 08:46:47;;;;;;;92.63;36.77;;;2.80;99.90;;;;;;5137450;27;20123;-83
2022/01/26 08:49:32;;;;;;;98.90;39.23;;;3.50;99.90;;;;;;5125932;27;20172;-83
2022/01/26 08:52:16;;;;;;;100.87;39.27;;;3.70;99.90;;;;;;5136659;27;20038;-83
2022/01/26 08:55:01;;;;;;;103.43;40.23;;;3.70;99.90;;;;;;5142961;27;20042;-83
2022/01/26 08:57:46;;;;;;;101.23;40.13;;;4.50;99.90;;;;;;5123957;27;20087;-83
2022/01/26 09:00:30;;;;;;;115.60;41.67;;;3.30;99.90;;;;;;5154990;27;20033;-83
2022/01/26 09:03:15;;;;;;;107.40;41.80;;;3.10;99.90;;;;;;5152364;27;20497;-83
2022/01/26 09:05:59;;;;;;;113.43;42.13;;;3.60;99.90;;;;;;5155603;27;20506;-83
2022/01/26 09:08:45;;;;;;;;;;;4.60;99.90;;;;;;5156681;27;20034;-83
2022/01/26 09:11:29;;;;;;;106.53;39.17;;;5.10;99.90;;;;;;5154415;27;19917;-83
2022/01/26 09:14:18;;;;;;;112.33;42.40;;;4.50;99.90;;;;;;5135383;27;20155;-83
2022/01/26 09:17:05;;;;;;;109.43;41.23;;;2.90;99.90;;;;;;5137275;27;20125;-82
2022/01/26 09:19:50;;;;;;;94.17;39.80;;;3.00;99.90;;;;;;5125333;27;20125;-83
2022/01/26 09:22:34;;;;;;;97.13;39.13;;;4.30;99.90;;;;;;5139036;27;20390;-83
2022/01/26 09:25:18;;;;;;;102.88;41.97;;;3.10;99.90;;;;;;5138050;27;20122;-83
2022/01/26 09:28:03;;;;;;;98.37;39.10;;;3.70;99.90;;;;;;5140118;27;20087;-84
2022/01/26 09:30:47;;;;;;;104.30;40.73;;;3.10;99.90;;;;;;5155614;27;20159;-83
2022/01/26 09:33:32;;;;;;;105.32;40.03;;;3.10;99.90;;;;;;5139274;27;20042;-83
2022/01/26 09:36:17;;;;;;;97.57;37.73;;;3.20;99.90;;;;;;5155791;27;20455;-84
2022/01/26 09:39:01;;;;;;;110.83;41.03;;;4.00;99.90;;;;;;5138328;27;20046;-83
2022/01/26 09:41:47;;;;;;;95.15;38.90;;;3.30;99.90;;;;;;5153511;27;20095;-83
2022/01/26 09:44:31;;;;;;;92.25;40.08;;;3.30;99.90;;;;;;5154893;27;20054;-83
2022/01/26 09:47:15;;;;;;;94.00;39.60;;;3.30;99.90;;;;;;5139573;27;20038;-83
2022/01/26 09:50:02;;;;;;;99.15;41.00;;;4.50;99.90;;;;;;5125155;27;20091;-83
2022/01/26 09:52:48;;;;;;;86.80;37.20;;;3.40;99.90;;;;;;5137632;27;20037;-83
2022/01/26 09:55:32;;;;;;;92.43;38.17;;;3.50;99.90;;;;;;5138176;27;20100;-83
2022/01/26 09:58:16;;;;;;;84.95;35.75;;;3.40;99.90;;;;;;5139435;27;20222;-84
2022/01/26 10:01:04;;;;;;;94.50;39.03;;;3.50;99.90;;;;;;5139220;27;20033;-83
2022/01/26 10:03:50;;;;;;;89.97;36.78;;;4.00;99.90;;;;;;5139420;27;20542;-83
2022/01/26 10:06:39;;;;;;;94.35;37.72;;;3.50;99.90;;;;;;5138844;27;20087;-83
2022/01/26 10:15:35;;;;;;;98.27;41.93;;;3.50;99.90;;;;;;5154774;27;20554;-83
2022/01/26 10:18:21;;;;;;;102.53;40.60;;;3.60;99.90;;;;;;5140688;27;20046;-83
2022/01/26 10:21:08;;;;;;;104.55;41.97;;;3.60;99.90;;;;;;5154314;27;20042;-84
2022/01/26 10:23:54;;;;;;;103.43;40.80;;;3.60;99.90;;;;;;5143399;27;20034;-83
2022/01/26 10:26:39;;;;;;;100.93;39.00;;;3.60;99.90;;;;;;5143935;27;20072;-82
2022/01/26 10:29:24;;;;;;;95.33;41.63;;;3.60;99.90;;;;;;5135819;27;20035;-82
2022/01/26 10:32:12;;;;;;;97.68;40.33;;;3.70;99.90;;;;;;5147094;27;20398;-83
2022/01/26 10:35:00;;;;;;;93.00;37.30;;;3.60;99.90;;;;;;5152872;27;20042;-84
2022/01/26 10:37:55;;;;;;;100.53;39.63;;;4.10;99.90;;;;;;5137546;27;20037;-83
2022/01/26 10:40:40;;;;;;;98.03;38.65;;;3.70;99.90;;;;;;5138944;27;20129;-82
2022/01/26 10:43:24;;;;;;;91.77;39.57;;;3.70;99.90;;;;;;5147303;27;20087;-84
2022/01/26 10:46:08;;;;;;;86.68;36.33;;;5.20;99.90;;;;;;5154125;27;20050;-83
2022/01/26 10:49:08;;;;;;;84.50;38.55;;;4.30;99.90;;;;;;5117202;27;20051;-83
2022/01/26 10:51:55;;;;;;;81.63;35.25;;;3.90;99.90;;;;;;5152925;27;20091;-84
2022/01/26 10:54:40;;;;;;;81.22;34.00;;;3.80;99.90;;;;;;5138403;27;20061;-84
2022/01/26 10:57:25;;;;;;;79.07;35.53;;;3.80;99.90;;;;;;5133388;27;20062;-84
2022/01/26 11:00:09;;;;;;;91.78;37.15;;;4.40;99.90;;;;;;5117851;28;20054;-84
2022/01/26 11:02:57;;;;;;;78.30;34.78;;;3.90;99.90;;;;;;5132954;28;20502;-83
2022/01/26 11:05:42;;;;;;;81.60;34.63;;;3.90;99.90;;;;;;5117822;28;20038;-84
2022/01/26 11:08:27;;;;;;;;;;;4.30;99.90;;;;;;5108590;27;20510;-84
2022/01/26 11:11:23;;;;;;;91.72;37.80;;;4.30;99.90;;;;;;5149024;27;19979;-85
2022/01/26 11:14:22;;;;;;;84.65;34.03;;;3.90;99.90;;;;;;5133201;27;20076;-84
2022/01/26 11:17:08;;;;;;;88.20;36.65;;;4.00;99.90;;;;;;5132631;28;20042;-84
2022/01/26 11:19:54;;;;;;;88.25;34.80;;;4.00;99.90;;;;;;5115086;28;20034;-84
2022/01/26 11:22:54;;;;;;;86.00;36.13;;;4.00;99.90;;;;;;5133877;28;20046;-83
2022/01/26 11:25:44;;;;;;;78.95;33.63;;;4.00;99.90;;;;;;5133057;28;20038;-84
2022/01/26 11:28:30;;;;;;;90.50;36.67;;;4.10;99.90;;;;;;5117589;28;20119;-84
2022/01/26 11:31:17;;;;;;;85.20;34.05;;;4.10;99.90;;;;;;5133018;28;20499;-84
2022/01/26 11:34:01;;;;;;;84.80;36.75;;;4.10;99.90;;;;;;5132964;28;20042;-84
2022/01/26 11:36:48;;;;;;;85.20;38.17;;;5.10;99.90;;;;;;5117029;28;20034;-84
2022/01/26 11:45:37;;;;;;;85.13;36.35;;;4.20;99.90;;;;;;5121102;27;20046;-84
2022/01/26 11:48:24;;;;;;;83.20;34.08;;;4.20;99.90;;;;;;5151657;27;20450;-84
2022/01/26 11:51:08;;;;;;;91.85;34.85;;;4.20;99.90;;;;;;5141579;27;20118;-84
2022/01/26 11:53:53;;;;;;;78.95;33.85;;;5.40;99.90;;;;;;5138246;27;20092;-84
2022/01/26 11:56:37;;;;;;;;;;;4.20;99.90;;;;;;5157068;27;20046;-84
2022/01/26 11:59:23;;;;;;;79.70;35.17;;;4.80;99.90;;;;;;5141706;27;19918;-83
2022/01/26 12:02:39;;;;;;;82.38;34.70;;;4.20;99.90;;;;;;5141795;27;20245;-84
2022/01/26 12:05:25;;;;;;;82.15;32.20;;;4.20;99.90;;;;;;5157254;27;20402;-84
2022/01/26 12:08:09;;;;;;;80.38;30.95;;;4.10;99.90;;;;;;5157188;27;20078;-84
2022/01/26 12:10:54;;;;;;;;;;;4.60;99.90;;;;;;5140859;27;20042;-84
2022/01/26 12:13:40;;;;;;;89.47;33.88;;;4.10;99.90;;;;;;5140850;27;19972;-83
2022/01/26 12:16:44;;;;;;;87.15;33.45;;;5.30;99.90;;;;;;5156385;27;20406;-84
2022/01/26 12:19:50;;;;;;;85.57;31.10;;;6.10;99.90;;;;;;5156751;27;20172;-84
2022/01/26 12:34:51;;;;;;;73.40;31.17;;;5.00;99.90;;;;;;5155946;27;20105;-83
2022/01/26 12:37:52;;;;;;;76.13;29.85;;;4.10;99.90;;;;;;5141935;27;20080;-84
2022/01/26 12:43:54;;;;;;;73.03;29.33;;;5.30;99.90;;;;;;5156008;27;20501;-83
2022/01/26 12:46:40;;;;;;;73.90;29.05;;;4.20;99.90;;;;;;5140830;27;20037;-84
2022/01/26 12:49:26;;;;;;;76.57;29.50;;;5.10;99.90;;;;;;5156490;27;20402;-83
2022/01/26 12:52:11;;;;;;;80.20;34.10;;;4.90;99.90;;;;;;5126331;27;20087;-83
2022/01/26 12:54:56;;;;;;;85.55;31.58;;;4.20;99.90;;;;;;5140210;27;20087;-84
2022/01/26 12:57:44;;;;;;;77.03;30.65;;;4.20;99.90;;;;;;5139673;27;20041;-83
2022/01/26 13:00:43;;;;;;;86.25;34.28;;;3.20;99.90;;;;;;5156030;27;20513;-84
2022/01/26 13:03:36;;;;;;;83.47;32.33;;;4.40;99.90;;;;;;5156191;27;20403;-83
2022/01/26 13:06:23;;;;;;;81.00;31.92;;;4.10;99.90;;;;;;5156274;27;20079;-84
2022/01/26 13:09:21;;;;;;;81.75;30.55;;;4.10;99.90;;;;;;5139922;27;20037;-84
2022/01/26 13:12:06;;;;;;;70.80;28.55;;;4.10;99.90;;;;;;5155631;27;20029;-84
2022/01/26 13:15:03;;;;;;;73.22;30.73;;;4.10;99.90;;;;;;5146457;27;20062;-84
2022/01/26 13:18:08;;;;;;;85.57;30.88;;;4.90;99.90;;;;;;5139560;27;20102;-83
2022/01/26 13:21:12;;;;;;;75.22;31.33;;;4.10;99.90;;;;;;5119148;27;20088;-83
2022/01/26 13:27:07;;;;;;;69.43;29.60;;;4.20;99.90;;;;;;5134475;27;20050;-83
2022/01/26 13:36:08;;;;;;;70.65;29.73;;;5.50;99.90;;;;;;5134218;27;20411;-84
2022/01/26 13:50:11;;;;;;;85.80;35.67;;;5.30;99.90;;;;;;5154670;27;20060;-83
2022/01/26 13:53:09;;;;;;;77.63;31.85;;;4.40;99.90;;;;;;5154673;27;20386;-83
2022/01/26 13:56:03;;;;;;;77.35;31.60;;;4.40;99.90;;;;;;5141081;27;20089;-83
2022/01/26 14:02:04;;;;;;;73.88;32.10;;;4.50;99.90;;;;;;5117425;27;20041;-83
2022/01/26 14:04:48;;;;;;;80.53;31.15;;;5.20;99.90;;;;;;5124831;27;20049;-83
2022/01/26 14:07:32;;;;;;;;;;;4.50;99.90;;;;;;5139599;27;20444;-83
2022/01/26 14:10:17;;;;;;;67.15;30.02;;;4.50;99.90;;;;;;5153955;27;20407;-83
2022/01/26 14:13:01;;;;;;;;;;;4.50;99.90;;;;;;5154771;27;20103;-84
2022/01/26 14:15:48;;;;;;;65.63;27.80;;;4.50;99.90;;;;;;5138912;27;19972;-84
2022/01/26 14:27:02;;;;;;;58.08;27.48;;;5.50;99.90;;;;;;5154109;27;20091;-83
2022/01/26 15:33:22;;;;;;;67.00;28.20;;;5.10;99.90;;;;;;5143505;27;20574;-83
2022/01/26 15:42:31;;;;;;;60.15;26.20;;;5.20;99.90;;;;;;5123776;27;20054;-83
2022/01/26 15:51:31;;;;;;;60.90;26.88;;;6.10;99.90;;;;;;5136192;27;20457;-83
2022/01/26 15:57:51;;;;;;;69.32;27.33;;;5.50;99.90;;;;;;5131429;27;20046;-84
2022/01/26 16:12:56;;;;;;;59.13;25.83;;;5.00;99.90;;;;;;5142445;27;20042;-83
2022/01/26 18:17:51;;;;;;;60.88;24.48;;;5.20;99.90;;;;;;5136257;27;20045;-83
2022/01/26 18:27:03;;;;;;;54.28;23.38;;;5.20;99.90;;;;;;5129229;27;20452;-83
2022/01/26 18:32:58;;;;;;;47.67;21.73;;;5.20;99.90;;;;;;5141601;27;20494;-83
2022/01/26 18:50:41;;;;;;;45.83;20.85;;;5.30;99.90;;;;;;5152341;27;20069;-83
2022/01/26 18:53:25;;;;;;;43.83;19.83;;;5.40;99.90;;;;;;5136296;27;20154;-83
2022/01/26 18:56:09;;;;;;;43.58;20.25;;;5.40;99.90;;;;;;5135858;27;20131;-83
2022/01/26 18:58:53;;;;;;;40.83;20.08;;;5.50;99.90;;;;;;5121483;27;20034;-83
2022/01/26 19:01:38;;;;;;;39.95;19.92;;;5.40;99.90;;;;;;5145556;27;20065;-83
2022/01/26 19:04:28;;;;;;;43.97;20.70;;;6.50;99.90;;;;;;5145758;27;20398;-83
2022/01/26 19:07:14;;;;;;;41.63;19.75;;;7.30;99.90;;;;;;5150426;27;20037;-83
2022/01/26 19:09:58;;;;;;;36.97;19.85;;;5.50;99.90;;;;;;5150622;27;20041;-84
2022/01/26 19:12:45;;;;;;;48.70;20.80;;;5.50;99.90;;;;;;5150153;27;20089;-84
2022/01/26 19:15:32;;;;;;;43.92;19.92;;;5.50;99.90;;;;;;5135040;27;20054;-84
2022/01/26 19:18:23;;;;;;;42.97;20.73;;;5.50;99.90;;;;;;5135064;27;20066;-83
2022/01/26 19:21:44;;;;;;;41.50;18.55;;;5.60;99.90;;;;;;5120735;27;20343;-84
2022/01/26 19:53:26;;;;;;;38.22;16.77;;;6.80;99.90;;;;;;5151498;27;20069;-84
2022/01/26 19:56:10;;;;;;;;;;;7.50;99.90;;;;;;5152305;27;20038;-84
2022/01/26 19:58:54;;;;;;;30.58;15.88;;;5.80;99.90;;;;;;5136540;27;19995;-84
2022/01/26 20:01:39;;;;;;;34.42;18.13;;;5.80;99.90;;;;;;5107562;27;20118;-84
2022/01/26 20:04:23;;;;;;;33.78;17.23;;;5.80;99.90;;;;;;5152316;27;20582;-84
2022/01/26 20:07:14;;;;;;;39.85;16.90;;;6.50;99.90;;;;;;5124721;27;20042;-84
2022/01/26 20:10:02;;;;;;;40.15;17.67;;;5.90;99.90;;;;;;5135305;27;20403;-84
2022/01/26 20:12:50;;;;;;;43.67;20.10;;;5.90;99.90;;;;;;5108739;27;20167;-84
2022/01/26 20:15:35;;;;;;;40.75;18.00;;;5.80;99.90;;;;;;5151868;27;20074;-84
2022/01/26 20:18:20;;;;;;;47.33;19.55;;;5.90;99.90;;;;;;5115743;27;20088;-84
2022/01/26 20:21:05;;;;;;;39.10;18.77;;;5.90;99.90;;;;;;5153045;27;20069;-84
2022/01/26 20:23:50;;;;;;;40.17;18.92;;;5.90;99.90;;;;;;5137083;27;20045;-83
2022/01/26 20:26:35;;;;;;;36.40;18.70;;;6.00;99.90;;;;;;5122655;27;20049;-84
2022/01/26 20:29:24;;;;;;;43.22;19.50;;;5.90;99.90;;;;;;5137401;27;20049;-83
2022/01/26 20:32:09;;;;;;;42.05;21.90;;;6.80;99.90;;;;;;5137203;27;20049;-83
2022/01/26 20:34:54;;;;;;;41.67;20.83;;;5.80;99.90;;;;;;5136810;27;20042;-83
2022/01/26 20:37:39;;;;;;;40.28;22.08;;;5.80;99.90;;;;;;5136717;27;20142;-84
2022/01/26 20:40:23;;;;;;;46.47;22.05;;;6.00;99.90;;;;;;5151127;27;20038;-84
2022/01/26 20:43:09;;;;;;;55.47;26.63;;;6.40;99.90;;;;;;5134444;27;20099;-83
2022/01/26 20:45:53;;;;;;;54.47;26.90;;;5.70;99.90;;;;;;5136768;27;20041;-83
2022/01/26 20:48:38;;;;;;;53.72;26.02;;;5.60;99.90;;;;;;5122451;27;20041;-84
2022/01/26 20:51:22;;;;;;;52.92;26.00;;;5.60;99.90;;;;;;5136455;27;20029;-83
2022/01/26 20:54:09;;;;;;;56.30;28.77;;;5.60;99.90;;;;;;5121723;27;20041;-84
2022/01/26 20:56:53;;;;;;;54.42;26.25;;;5.50;99.90;;;;;;5152201;27;20466;-84
2022/01/26 20:59:38;;;;;;;52.83;25.67;;;6.40;99.90;;;;;;5122549;27;20058;-84
2022/01/26 21:02:23;;;;;;;50.75;24.90;;;5.50;99.90;;;;;;5134567;27;20102;-84
2022/01/26 21:05:09;;;;;;;52.75;27.77;;;6.10;99.90;;;;;;5136078;27;20110;-84
2022/01/26 21:07:55;;;;;;;63.08;29.00;;;5.50;99.90;;;;;;5151994;27;20439;-84
2022/01/26 21:10:39;;;;;;;55.90;25.45;;;5.50;99.90;;;;;;5152216;27;20165;-84
2022/01/26 21:13:27;;;;;;;;;;;5.50;99.90;;;;;;5136458;27;20046;-84
2022/01/26 21:16:11;;;;;;;45.05;23.83;;;5.50;99.90;;;;;;5121843;27;19974;-85